Albury Airport


Codes: YMAY/ABX
Name: Albury Airport
City: Albury
Country: Australia
Elevation: 539 ft.
Wikipedia:

Photos at Albury Airport


   Photos courtesy of SpottingLog. You can add your own sightings and photos by signing up for a free trial today.



No photos found.

Weather at Albury Airport


Time (UTC)DescriptionTempratureWindCloud coverageVisibilityPressureHumidity
16-Jun-2024 12:00Clear Sky6°C4 mph, SE1%10000m1018hPa73%
16-Jun-2024 15:00Clear Sky4°C4 mph, SE3%10000m1019hPa80%
16-Jun-2024 18:00Clear Sky3°C2 mph, SE9%10000m1019hPa83%
16-Jun-2024 21:00Broken Clouds6°C2 mph, S60%10000m1020hPa74%
17-Jun-2024 00:00Scattered Clouds10°C2 mph, S44%10000m1020hPa68%
17-Jun-2024 03:00Scattered Clouds13°C9 mph, SE44%10000m1018hPa55%
17-Jun-2024 06:00Scattered Clouds12°C7 mph, SE45%10000m1018hPa61%
17-Jun-2024 09:00Few Clouds6°C4 mph, SE16%10000m1020hPa79%
17-Jun-2024 12:00Clear Sky4°C4 mph, SE9%10000m1020hPa90%
17-Jun-2024 15:00Clear Sky2°C4 mph, SE1%10000m1021hPa92%
17-Jun-2024 18:00Clear Sky1°C4 mph, SE1%10000m1020hPa94%
17-Jun-2024 21:00Clear Sky0°C4 mph, SE0%10000m1021hPa93%
18-Jun-2024 00:00Clear Sky6°C2 mph, SE0%10000m1021hPa69%
18-Jun-2024 03:00Clear Sky11°C0 mph, SW0%10000m1018hPa54%
18-Jun-2024 06:00Clear Sky10°C4 mph, NW0%10000m1017hPa65%
18-Jun-2024 09:00Clear Sky4°C2 mph, SW0%10000m1018hPa84%
18-Jun-2024 12:00Clear Sky2°C2 mph, SE0%10000m1019hPa88%
18-Jun-2024 15:00Overcast Clouds2°C2 mph, SE95%10000m1018hPa92%
18-Jun-2024 18:00Overcast Clouds0°C2 mph, SE85%10000m1018hPa94%
18-Jun-2024 21:00Clear Sky-1°C2 mph, SE4%10000m1018hPa94%
19-Jun-2024 00:00Scattered Clouds5°C2 mph, E42%10000m1018hPa72%
19-Jun-2024 03:00Overcast Clouds10°C4 mph, NW100%10000m1016hPa57%
19-Jun-2024 06:00Light Rain8°C2 mph, SE100%10000m1014hPa77%
19-Jun-2024 09:00Light Rain6°C2 mph, E100%10000m1016hPa95%
19-Jun-2024 12:00Light Rain6°C2 mph, E100%10000m1016hPa96%
19-Jun-2024 15:00Light Rain6°C4 mph, SE100%10000m1015hPa97%
19-Jun-2024 18:00Light Rain6°C4 mph, E100%10000m1014hPa97%
19-Jun-2024 21:00Light Rain6°C4 mph, E100%10000m1014hPa96%
20-Jun-2024 00:00Overcast Clouds8°C4 mph, E100%10000m1014hPa90%
20-Jun-2024 03:00Moderate Rain8°C4 mph, NE100%5448m1012hPa96%
20-Jun-2024 06:00Light Rain8°C4 mph, E100%10000m1012hPa96%
20-Jun-2024 09:00Light Rain7°C4 mph, SE100%10000m1014hPa97%
20-Jun-2024 12:00Overcast Clouds7°C2 mph, E100%10000m1015hPa96%
20-Jun-2024 15:00Light Rain7°C2 mph, E100%10000m1015hPa96%
20-Jun-2024 18:00Light Rain7°C2 mph, SE100%10000m1016hPa97%
20-Jun-2024 21:00Overcast Clouds6°C2 mph, S94%10000m1019hPa96%
21-Jun-2024 00:00Broken Clouds9°C2 mph, SW63%10000m1021hPa87%
21-Jun-2024 03:00Scattered Clouds12°C4 mph, SW29%10000m1020hPa66%
21-Jun-2024 06:00Scattered Clouds12°C4 mph, W37%10000m1021hPa68%
21-Jun-2024 09:00Scattered Clouds8°C4 mph, W50%10000m1024hPa84%